Long Grove, Iowa
Current Conditions -  °F | °C
As of 4:52 AM on Friday 19 Dec 2014 (Local Time) from KDVN Reporting Station
Clear Clear  
Wind Chill: 15°   Ceiling: Unl
Heat Index: 15°   Visibility: 8mi
Dew Point: 10°   Wind: 3mph
Humidity: 80%   Direction: 40°NE
Pressure: 30.29"   Gusts: NA
Location:  41.7°N, 90.58°W
Report Text: KDVN 191052Z AUTO 04003KT 8SM CLR M09/M12 A3029 RMK AO2 SLP268 I1000 T10941122
Loading
Personal Weather Stations






























Interactive Weather Map New forecast layout! Learn more

10-Day Weather Forecast

Advertisements
Track Severe Weather on mobile